Latest Weather Observations for Thredbo Top Station

IDN60801

Issued at 5:23 am EDT Tuesday 19 January 2021 (issued every 10 minutes, with the page automatically refreshed every 10 minutes)

About weather observations | Map of weather stations | Latest weather observations for NSW | Other Formats
Station Details ID: 071032 Name: THREDBO AWS Lat: -36.49 Lon: 148.29 Height: 1957.0 m
Data from the previous 72 hours. | See also: Recent months at Thredbo Top Station
Date/Time
EDT
Temp
°C
App
Temp
°C
Dew
Point
°C
Rel
Hum
%
Delta-T
°C
Wind Press
QNH
hPa
Press
MSL
hPa
Rain since
9am
mm
Dir  Spd
km/h
Gust
km/h
Spd
kts
Gust
kts
19/05:00am 7.6 -0.1 -19.0 13 7.5 SSW 22 33 12 18 1019.6 1010.6 0.0
19/04:30am 7.6 -1.3 -20.9 11 8.2 SW 28 41 15 22 1019.6 1010.6 0.0
19/04:00am 7.5 -1.0 -19.1 13 7.9 SW 26 39 14 21 1019.6 1010.6 0.0
19/03:30am 6.0 -2.9 -11.5 27 5.8 SW 30 41 16 22 1019.6 1010.6 0.0
19/03:00am 7.2 -0.6 -12.5 23 6.5 SW 24 33 13 18 1019.7 1010.8 0.0
19/02:30am 7.7 0.4 -3.2 46 4.5 SW 26 37 14 20 1020.0 1011.0 0.0
19/02:00am 7.1 1.3 4.4 83 1.3 SW 24 30 13 16 1020.2 1011.3 0.0
19/01:30am 7.1 1.8 2.8 74 2.0 SW 20 28 11 15 1020.4 1011.4 0.0
19/01:00am 7.1 1.3 -0.1 60 3.2 SW 20 28 11 15 1020.6 1011.6 0.0
19/12:30am 7.6 1.7 -1.9 51 4.0 WSW 19 24 10 13 1020.6 1011.6 0.0
19/12:00am 8.0 2.6 -1.2 52 4.0 WSW 17 26 9 14 1020.5 1011.5 0.0
 
Date/Time
EDT
Temp
°C
App
Temp
°C
Dew
Point
°C
Rel
Hum
%
Delta-T
°C
Wind Press
QNH
hPa
Press
MSL
hPa
Rain since
9am
mm
Dir  Spd
km/h
Gust
km/h
Spd
kts
Gust
kts
18/11:30pm 7.8 3.6 1.4 64 2.9 W 13 19 7 10 1020.6 1011.6 0.0
18/11:00pm 8.6 4.8 5.7 82 1.5 WSW 15 22 8 12 1020.5 1011.5 0.0
18/10:30pm 9.3 6.8 8.2 93 0.6 WSW 11 13 6 7 1020.5 1011.5 0.0
18/10:00pm 10.2 7.5 8.8 91 0.8 SW 13 17 7 9 1020.5 1011.5 0.0
18/09:30pm 11.1 7.8 6.6 74 2.4 WSW 13 17 7 9 1020.2 1011.3 0.0
18/09:00pm 11.9 7.9 5.1 63 3.5 W 15 22 8 12 1019.9 1010.9 0.0
18/08:30pm 11.9 7.5 4.9 62 3.6 WNW 17 22 9 12 1019.6 1010.6 0.0
18/08:00pm 12.9 8.8 4.6 57 4.2 W 15 22 8 12 1019.5 1010.5 0.0
18/07:30pm 13.7 8.3 4.6 54 4.7 W 22 32 12 17 1019.1 1010.1 0.0
18/07:00pm 14.7 10.2 4.4 50 5.3 WSW 17 30 9 16 1018.9 1009.9 0.0
18/06:30pm 14.8 9.0 4.2 49 5.5 WNW 24 35 13 19 1018.5 1009.5 0.0
18/06:00pm 15.1 9.3 4.2 48 5.6 WSW 24 39 13 21 1018.7 1009.6 0.0
18/05:30pm 14.7 8.4 3.5 47 5.7 W 26 41 14 22 1019.0 1010.0 0.0
18/05:00pm 15.0 7.9 3.8 47 5.7 WNW 30 41 16 22 1018.9 1009.9 0.0
18/04:30pm 15.1 7.7 4.8 50 5.4 WNW 33 48 18 26 1018.8 1009.8 0.0
18/04:00pm 15.2 7.3 4.6 49 5.5 WNW 35 57 19 31 1018.8 1009.8 0.0
18/03:52pm 15.8 8.4 5.1 49 5.6 WNW 33 52 18 28 1018.9 1009.9 0.0
18/03:30pm 14.7 6.4 4.4 50 5.3 NW 37 50 20 27 1018.8 1009.8 0.0
18/03:00pm 14.2 6.6 3.9 50 5.2 WNW 33 54 18 29 1019.3 1010.3 0.0
18/02:31pm 14.4 7.5 4.4 51 5.2 WNW 30 48 16 26 1019.4 1010.4 0.0
18/02:30pm 14.5 7.3 5.0 53 5.0 WNW 32 48 17 26 1019.4 1010.4 0.0
18/02:00pm 14.3 6.9 5.1 54 4.8 WNW 33 48 18 26 1019.6 1010.6 0.0
18/01:30pm 13.7 6.2 3.2 49 5.3 NW 32 44 17 24 1019.6 1010.6 0.0
18/01:00pm 13.9 7.3 -0.2 38 6.6 NW 24 37 13 20 1020.1 1011.1 0.0
18/12:30pm 13.4 7.8 0.1 40 6.2 WNW 19 30 10 16 1020.5 1011.5 0.0
18/12:00pm 14.0 7.4 2.3 45 5.8 WNW 26 33 14 18 1020.2 1011.3 0.0
18/11:30am 14.1 7.7 0.7 40 6.4 WNW 24 33 13 18 1020.1 1011.1 0.0
18/11:00am 13.6 7.3 -1.2 36 6.7 WNW 22 35 12 19 1020.0 1011.0 0.0
18/10:30am 12.8 7.0 -0.4 40 6.1 W 20 32 11 17 1020.1 1011.1 0.0
18/10:00am 13.1 6.7 -1.6 36 6.6 WNW 22 33 12 18 1020.0 1011.0 0.0
18/09:30am 11.7 4.8 -2.9 36 6.3 WNW 24 43 13 23 1020.1 1011.1 0.0
18/09:00am 11.4 4.5 -2.4 38 6.0 WNW 24 35 13 19 1020.0 1011.0 0.0
18/08:30am 10.6 4.0 -0.2 47 4.9 WNW 24 35 13 19 1019.7 1010.8 0.0
18/08:00am 9.6 2.8 -1.7 45 4.9 WNW 24 35 13 19 1019.6 1010.6 0.0
18/07:30am 8.9 2.6 1.3 59 3.5 WNW 24 33 13 18 1019.4 1010.4 0.0
18/07:00am 7.9 0.0 2.2 67 2.7 NW 33 41 18 22 1018.8 1009.8 0.0
18/06:30am 7.4 -0.7 3.5 76 1.9 NW 35 44 19 24 1018.5 1009.5 0.0
18/06:00am 7.1 -0.9 3.7 79 1.6 NW 35 44 19 24 1018.4 1009.4 0.0
18/05:30am 7.0 -0.4 4.1 82 1.4 WNW 32 39 17 21 1018.4 1009.4 0.0
18/05:00am 7.0 -0.4 4.1 82 1.4 WNW 32 41 17 22 1018.2 1009.1 0.0
18/04:30am 7.3 -0.6 4.4 82 1.4 NW 35 43 19 23 1017.9 1008.9 0.0
18/04:00am 7.3 -1.3 4.8 84 1.2 NW 39 46 21 25 1017.9 1008.9 0.0
18/03:30am 7.1 -0.8 4.6 84 1.2 NW 35 44 19 24 1018.2 1009.1 0.0
18/03:00am 7.3 -0.2 4.6 83 1.3 NW 33 41 18 22 1018.4 1009.4 0.0
18/02:30am 7.2 0.7 4.7 84 1.2 NW 28 37 15 20 1019.0 1010.0 0.0
18/02:00am 7.4 1.7 4.9 84 1.2 NW 24 33 13 18 1019.5 1010.5 0.0
18/01:30am 7.3 1.6 5.1 86 1.1 NW 24 32 13 17 1019.6 1010.6 0.0
18/01:00am 7.2 2.3 4.9 85 1.1 NW 20 26 11 14 1020.1 1011.1 0.0
18/12:30am 6.9 2.6 5.2 89 0.8 NW 17 20 9 11 1020.2 1011.3 0.0
18/12:00am 7.0 2.1 5.2 88 0.9 NW 20 24 11 13 1020.5 1011.5 0.0
 
Date/Time
EDT
Temp
°C
App
Temp
°C
Dew
Point
°C
Rel
Hum
%
Delta-T
°C
Wind Press
QNH
hPa
Press
MSL
hPa
Rain since
9am
mm
Dir  Spd
km/h
Gust
km/h
Spd
kts
Gust
kts
17/11:30pm 7.5 2.7 5.5 87 1.0 NW 20 24 11 13 1020.6 1011.6 0.0
17/11:00pm 7.5 2.9 5.6 88 1.0 NW 19 22 10 12 1020.5 1011.5 0.0
17/10:30pm 6.1 0.9 3.8 85 1.1 NW 20 24 11 13 1020.7 1011.8 0.0
17/10:00pm 8.6 3.3 4.8 77 1.9 NNW 22 26 12 14 1020.8 1011.9 0.0
17/09:30pm 8.9 3.8 4.3 73 2.3 NW 20 28 11 15 1020.6 1011.6 0.0
17/09:00pm 8.9 4.0 4.3 73 2.3 NW 19 24 10 13 1020.5 1011.5 0.0
17/08:30pm 8.7 4.6 4.1 73 2.3 NW 15 22 8 12 1020.5 1011.5 0.0
17/08:00pm 9.4 5.2 3.8 68 2.7 WNW 15 24 8 13 1020.2 1011.3 0.0
17/07:30pm 11.0 6.8 3.8 61 3.6 WNW 15 24 8 13 1019.9 1010.9 0.0
17/07:00pm 11.6 7.1 4.1 60 3.8 WNW 17 24 9 13 1019.6 1010.6 0.0
17/06:30pm 12.2 7.2 3.4 55 4.4 W 19 26 10 14 1019.6 1010.6 0.0
17/06:00pm 12.8 7.9 4.3 56 4.3 W 19 28 10 15 1019.4 1010.4 0.0
17/05:30pm 12.9 8.5 4.6 57 4.3 WSW 17 26 9 14 1019.3 1010.3 0.0
17/05:00pm 13.4 8.5 4.3 54 4.6 SW 19 30 10 16 1019.5 1010.5 0.0
17/04:30pm 13.4 9.1 5.3 58 4.2 WSW 17 26 9 14 1019.7 1010.8 0.0
17/04:00pm 12.6 8.8 4.1 56 4.3 W 13 24 7 13 1019.6 1010.6 0.0
17/03:30pm 12.2 7.5 2.9 53 4.6 W 17 32 9 17 1019.6 1010.6 0.0
17/03:00pm 12.6 7.9 3.0 52 4.7 W 17 30 9 16 1019.4 1010.4 0.0
17/02:30pm 11.9 7.3 3.7 57 4.1 WSW 17 28 9 15 1019.5 1010.5 0.0
17/02:00pm 11.7 6.4 4.9 63 3.5 WNW 22 33 12 18 1019.4 1010.4 0.0
17/01:30pm 11.8 6.7 3.3 56 4.2 W 19 30 10 16 1019.4 1010.4 0.0
17/01:00pm 11.0 6.4 3.5 60 3.7 WNW 17 30 9 16 1019.4 1010.4 0.0
17/12:30pm 10.8 6.0 4.7 66 3.1 WNW 19 32 10 17 1019.4 1010.4 0.0
17/12:00pm 9.5 3.0 2.6 62 3.3 NW 26 33 14 18 1018.8 1009.8 0.0
17/11:30am 9.2 3.1 0.1 53 4.1 W 22 32 12 17 1018.9 1009.9 0.0
17/11:00am 10.7 5.1 -6.1 30 6.7 WNW 15 24 8 13 1018.4 1009.4 0.0
17/10:30am 10.6 5.1 -5.0 33 6.4 WNW 15 28 8 15 1018.3 1009.3 0.0
17/10:00am 9.9 5.1 -6.4 31 6.4 SW 11 22 6 12 1017.9 1008.9 0.0
17/09:30am 9.4 5.3 -6.8 31 6.3 S 7 17 4 9 1017.8 1008.7 0.0
17/09:00am 7.6 4.3 -1.6 52 3.9 SSE 6 13 3 7 1017.4 1008.4 0.2
17/08:30am 7.3 3.3 -2.4 50 4.1 SSW 9 19 5 10 1017.2 1008.1 0.2
17/08:00am 6.7 3.9 -0.7 59 3.2 WNW 4 9 2 5 1016.8 1007.7 0.2
17/07:30am 5.2 -0.6 -4.6 49 3.8 WNW 17 39 9 21 1016.1 1007.0 0.2
17/07:00am 3.7 -3.6 -2.5 64 2.5 NW 26 35 14 19 1015.9 1006.7 0.2
17/06:30am 2.1 -4.4 0.0 86 0.9 NW 24 39 13 21 1015.6 1006.5 0.2
17/06:00am 2.3 -4.7 -0.8 80 1.3 NW 26 39 14 21 1015.3 1006.1 0.2
17/05:30am 1.3 -6.2 0.9 97 0.2 WNW 30 44 16 24 1015.0 1005.9 0.2
17/05:29am 1.3 -6.2 0.9 97 0.2 WNW 30 44 16 24 1014.9 1005.7 0.2
17/05:00am 1.9 -5.3 0.9 93 0.4 W 28 46 15 25 1015.1 1006.0 0.2
17/04:54am 1.7 -5.4 1.3 97 0.2 W 28 46 15 25 1014.8 1005.6 0.2
17/04:30am 1.4 -5.8 1.0 97 0.2 WNW 28 41 15 22 1014.7 1005.5 0.2
17/04:00am 2.0 -5.1 1.6 97 0.2 W 28 39 15 21 1014.7 1005.5 0.2
17/03:30am 2.2 -6.2 1.6 96 0.3 W 35 54 19 29 1014.7 1005.5 0.2
17/03:01am 3.4 -4.7 -0.1 78 1.5 W 32 56 17 30 1014.5 1005.4 0.2
17/03:00am 3.4 -4.7 -0.1 78 1.5 W 32 48 17 26 1014.7 1005.5 0.2
17/02:46am 3.2 -4.8 0.3 81 1.2 W 32 50 17 27 1014.8 1005.6 0.2
17/02:30am 3.0 -5.5 0.9 86 0.9 W 35 50 19 27 1014.8 1005.6 0.2
17/02:00am 2.4 -6.7 2.0 97 0.2 W 39 69 21 37 1014.5 1005.4 0.2
17/01:30am 2.3 -6.8 1.9 97 0.2 W 39 61 21 33 1014.7 1005.5 0.2
17/01:00am 2.4 -6.3 2.0 97 0.2 W 37 56 20 30 1014.7 1005.5 0.2
17/12:33am 2.6 -6.8 2.2 97 0.2 W 41 59 22 32 1014.7 1005.5 0.2
17/12:30am 2.5 -6.9 2.1 97 0.2 W 41 57 22 31 1014.8 1005.6 0.2
17/12:00am 2.6 -7.8 2.2 97 0.2 W 46 69 25 37 1014.4 1005.2 0.2
 
Date/Time
EDT
Temp
°C
App
Temp
°C
Dew
Point
°C
Rel
Hum
%
Delta-T
°C
Wind Press
QNH
hPa
Press
MSL
hPa
Rain since
9am
mm
Dir  Spd
km/h
Gust
km/h
Spd
kts
Gust
kts
16/11:30pm 2.8 -7.9 2.4 97 0.2 W 48 67 26 36 1014.5 1005.4 0.2
16/11:03pm 3.0 -7.3 2.4 96 0.3 W 46 65 25 35 1014.5 1005.4 0.2
16/11:00pm 2.9 -7.0 2.5 97 0.2 W 44 61 24 33 1014.5 1005.4 0.2
16/10:30pm 2.9 -6.1 2.5 97 0.2 WNW 39 61 21 33 1014.9 1005.7 0.2
16/10:00pm 2.9 -6.9 2.5 97 0.2 WNW 43 69 23 37 1014.4 1005.2 0.2
16/09:30pm 3.2 -5.7 2.8 97 0.2 WNW 39 59 21 32 1014.7 1005.5 0.2
16/09:29pm 3.2 -6.1 2.8 97 0.2 WNW 41 59 22 32 1014.8 1005.6 0.2
16/09:00pm 3.6 -6.6 3.2 97 0.2 WNW 46 59 25 32 1014.4 1005.2 0.2
16/08:30pm 3.8 -5.4 3.4 97 0.2 WNW 41 54 22 29 1014.4 1005.2 0.2
16/08:11pm 4.2 -5.6 3.6 96 0.3 NW 44 63 24 34 - - 0.2
16/08:00pm 4.3 -5.9 3.4 94 0.4 NW 46 57 25 31 - - 0.2
16/07:42pm 4.6 -5.0 3.4 92 0.6 NW 43 61 23 33 - - 0.2
16/07:30pm 4.8 -5.1 3.0 88 0.8 WNW 44 57 24 31 - - 0.2
16/07:00pm 5.1 -4.6 2.8 85 1.1 WNW 43 59 23 32 - - 0.2
16/06:30pm 5.5 -3.5 2.3 80 1.5 WNW 39 54 21 29 - - 0.2
16/06:11pm 5.7 -2.6 2.4 79 1.5 NW 35 54 19 29 - - 0.2
16/06:00pm 5.9 -3.1 2.2 77 1.7 NW 39 52 21 28 - - 0.2
16/05:30pm 5.9 -2.3 2.7 80 1.5 NW 35 48 19 26 - - 0.2
16/05:13pm 7.0 -1.6 2.5 73 2.1 WNW 37 59 20 32 - - 0.2
16/05:00pm 6.6 -1.7 2.3 74 2.0 WNW 35 50 19 27 - - 0.2
16/04:40pm 6.7 -0.9 3.1 78 1.7 WNW 32 50 17 27 - - 0.2
16/04:30pm 5.9 -2.6 2.9 81 1.4 NW 37 50 20 27 - - 0.2
16/04:07pm 6.1 -2.5 2.4 77 1.7 WNW 37 56 20 30 - - 0.2
16/04:00pm 5.7 -3.7 2.4 79 1.5 WNW 41 56 22 30 - - 0.2
16/03:31pm 6.6 -0.8 1.9 72 2.2 WNW 30 50 16 27 - - 0.2
16/03:30pm 6.5 -0.8 2.4 75 1.9 WNW 30 46 16 25 - - 0.2
16/03:03pm 6.2 -0.9 1.3 71 2.2 W 28 46 15 25 - - 0.2
16/03:00pm 6.4 -0.8 0.9 68 2.5 W 28 43 15 23 - - 0.2
16/02:30pm 6.5 -0.7 1.0 68 2.5 WNW 28 44 15 24 - - 0.2
16/02:00pm 7.5 -0.5 1.4 65 2.8 W 33 54 18 29 - - 0.0
16/01:44pm 6.7 -1.5 0.4 64 2.8 WNW 33 52 18 28 - - 0.0
16/01:30pm 7.4 -0.4 2.7 72 2.2 WNW 33 50 18 27 - - 0.0
16/01:25pm 7.0 -1.3 2.1 71 2.3 WNW 35 54 19 29 - - 0.0
16/01:06pm 6.2 -1.7 1.3 71 2.2 W 32 54 17 29 - - 0.0
16/01:00pm 6.1 -1.8 1.1 70 2.3 W 32 52 17 28 - - 0.0
16/12:55pm 5.3 -2.8 0.7 72 2.0 W 33 52 18 28 - - 0.0
16/12:30pm 5.5 -2.6 0.7 71 2.1 WSW 33 50 18 27 - - 0.0
16/12:00pm 5.5 -3.0 0.7 71 2.1 W 35 57 19 31 - - 0.0
16/11:40am 4.4 -4.6 -0.2 72 2.0 W 37 56 20 30 - - 0.0
16/11:30am 4.3 -5.2 -0.5 71 2.0 W 39 52 21 28 - - 0.0
16/11:04am 3.6 -5.2 -1.2 71 2.0 WSW 35 54 19 29 - - 0.0
16/11:00am 3.2 -5.3 -1.7 70 2.0 WSW 33 46 18 25 - - 0.0
16/10:30am 2.4 -6.1 -1.7 74 1.7 WSW 33 52 18 28 - - 0.0
16/10:00am 2.1 -6.7 -1.3 78 1.4 WSW 35 57 19 31 - - 0.0
16/09:31am 1.6 -8.4 -2.0 77 1.4 WSW 41 61 22 33 - - 0.0
16/09:30am 1.7 -7.8 -1.0 82 1.1 WSW 39 56 21 30 - - 0.0
16/09:04am 0.7 -8.9 -1.4 86 0.9 WSW 39 59 21 32 - - 0.0
16/09:00am 0.4 -9.1 -0.9 91 0.5 WSW 39 54 21 29 - - 0.2
16/08:35am -0.3 -10.3 -1.6 91 0.5 WSW 41 59 22 32 - - 0.2
16/08:30am -0.3 -10.6 -1.3 93 0.4 WSW 43 57 23 31 - - 0.2
16/08:05am -0.1 -10.4 -1.2 92 0.4 WSW 43 61 23 33 - - 0.2
16/08:00am -0.1 -10.5 -0.7 96 0.2 WSW 44 57 24 31 - - 0.2
16/07:44am -0.9 -10.1 -1.5 96 0.2 WSW 37 56 20 30 - - 0.2
16/07:30am -1.4 -9.9 -1.8 97 0.1 WSW 33 48 18 26 - - 0.2
16/07:00am -1.8 -11.1 -2.2 97 0.1 WSW 37 56 20 30 - - 0.2
16/06:30am -2.5 -11.1 -2.9 97 0.0 WSW 33 52 18 28 - - 0.2
16/06:10am -2.5 -11.0 -2.9 97 0.0 WSW 32 54 17 29 - - 0.2
16/06:00am -2.4 -10.8 -2.8 97 0.0 WSW 32 46 17 25 - - 0.2
16/05:45am -2.3 -10.7 -2.7 97 0.0 WSW 32 50 17 27 - - 0.2
16/05:30am -2.2 -11.2 -2.6 97 0.0 SW 35 46 19 25 - - 0.2

Other formats

Comma delimited format used in spreadsheet applications
http://www.bom.gov.au/fwo/IDN60801/IDN60801.95909.axf

JavaScript Object Notation format (JSON) in row-major order
http://www.bom.gov.au/fwo/IDN60801/IDN60801.95909.json

Data quality

Most of these data are generated automatically and are frequently updated. Quality checks on data are not normally performed. It is possible for incorrect values to appear. Refer to information at About Latest Weather Observations and please check the disclaimer before using these data.